Main page
METAR-TAF:

METAR-TAF

Airports :

Gaines County Airport

Seminole, Texas, United States

latitude: 32-40-31N, longitude: 102-39-09W, elevation: 3313 ft

Current weather observation

The report was made 13 minutes ago, at 00:15 UTC
Wind 6 mph from the Northwest
Temperature 61°F
Humidity 36%
Pressure 30.03 in. Hg
Visibility: 10 miles
Clear sky

METAR: KGNC 060015Z AUTO 31005KT 10SM CLR 16/01 A3003 RMK AO2 T01580014

Time: 18:28 (00:28 UTC)


TAF: missing

Weather observations and forecasts of more than 4000 airports (METAR and TAF reports).

The available stations are represented by yellow and red dots on the map.

Hover mouse over dot to see the name of the station.

Then click to see weather observations and forecasts.

To change the map : click on the green buttons with a black cross to zoom in, on the green button with a dash to zoom out, or on the green arrows for adjacent maps.


METAR-TAF: